createdAt,value
2023-04-09T00:00:30.236Z,1020.74
2023-04-09T00:01:30.257Z,1020.72
2023-04-09T00:02:30.303Z,1020.73
2023-04-09T00:03:30.357Z,1020.73
2023-04-09T00:04:30.435Z,1020.69
2023-04-09T00:05:30.333Z,1020.69
2023-04-09T00:06:30.355Z,1020.69
2023-04-09T00:07:30.374Z,1020.67
2023-04-09T00:08:30.394Z,1020.69
2023-04-09T00:09:30.419Z,1020.65
2023-04-09T00:10:30.432Z,1020.64
2023-04-09T00:11:30.454Z,1020.64
2023-04-09T00:12:30.482Z,1020.63
2023-04-09T00:14:30.527Z,1020.60
2023-04-09T00:15:31.869Z,1020.62
2023-04-09T00:16:30.581Z,1020.59
2023-04-09T00:17:30.616Z,1020.59
2023-04-09T00:18:30.591Z,1020.58
2023-04-09T00:19:30.610Z,1020.56
2023-04-09T00:20:30.647Z,1020.54
2023-04-09T00:21:30.650Z,1020.53
2023-04-09T00:22:30.670Z,1020.53
2023-04-09T00:23:30.702Z,1020.53
2023-04-09T00:24:30.707Z,1020.53
2023-04-09T00:25:30.730Z,1020.51
2023-04-09T00:26:30.747Z,1020.51
2023-04-09T00:27:30.766Z,1020.51
2023-04-09T00:28:30.791Z,1020.52
2023-04-09T00:29:30.809Z,1020.52
2023-04-09T00:30:30.828Z,1020.53
2023-04-09T00:31:30.857Z,1020.52
2023-04-09T00:32:30.884Z,1020.51
2023-04-09T00:33:30.888Z,1020.48
2023-04-09T00:34:30.903Z,1020.46
2023-04-09T00:35:30.994Z,1020.48
2023-04-09T00:36:30.960Z,1020.50
2023-04-09T00:37:30.966Z,1020.50
2023-04-09T00:38:30.988Z,1020.48
2023-04-09T00:39:31.000Z,1020.50
2023-04-09T00:40:31.022Z,1020.46
2023-04-09T00:41:31.042Z,1020.45
2023-04-09T00:42:31.059Z,1020.43
2023-04-09T00:43:31.080Z,1020.46
2023-04-09T00:44:31.099Z,1020.44
2023-04-09T00:45:31.146Z,1020.46
2023-04-09T00:46:31.140Z,1020.45
2023-04-09T00:47:31.195Z,1020.43
2023-04-09T00:48:31.196Z,1020.46
2023-04-09T00:49:31.200Z,1020.45
2023-04-09T00:50:31.220Z,1020.46
2023-04-09T00:51:31.234Z,1020.46
2023-04-09T00:52:31.257Z,1020.45
2023-04-09T00:53:31.273Z,1020.45
2023-04-09T00:54:31.311Z,1020.42
2023-04-09T00:55:31.309Z,1020.42
2023-04-09T00:56:31.336Z,1020.42
2023-04-09T00:57:31.362Z,1020.42
2023-04-09T00:58:31.371Z,1020.39
2023-04-09T00:59:31.412Z,1020.39
2023-04-09T01:00:31.409Z,1020.41
2023-04-09T01:01:31.505Z,1020.43
2023-04-09T01:02:31.566Z,1020.43
2023-04-09T01:03:31.548Z,1020.44
2023-04-09T01:04:31.485Z,1020.43
2023-04-09T01:05:31.508Z,1020.43
2023-04-09T01:06:31.522Z,1020.41
2023-04-09T01:07:31.556Z,1020.37
2023-04-09T01:08:31.564Z,1020.38
2023-04-09T01:09:31.581Z,1020.34
2023-04-09T01:10:31.599Z,1020.38
2023-04-09T01:11:31.624Z,1020.36
2023-04-09T01:12:31.639Z,1020.35
2023-04-09T01:13:31.675Z,1020.35
2023-04-09T01:14:31.688Z,1020.35
2023-04-09T01:15:31.693Z,1020.39
2023-04-09T01:16:31.747Z,1020.35
2023-04-09T01:17:31.752Z,1020.37
2023-04-09T01:18:31.752Z,1020.38
2023-04-09T01:19:31.774Z,1020.36
2023-04-09T01:20:31.791Z,1020.37
2023-04-09T01:21:31.815Z,1020.39
2023-04-09T01:22:31.831Z,1020.42
2023-04-09T01:23:31.854Z,1020.43
2023-04-09T01:24:31.869Z,1020.44
2023-04-09T01:25:31.884Z,1020.41
2023-04-09T01:26:31.924Z,1020.42
2023-04-09T01:27:31.929Z,1020.40
2023-04-09T01:28:31.949Z,1020.40
2023-04-09T01:29:31.966Z,1020.41
2023-04-09T01:30:32.010Z,1020.39
2023-04-09T01:31:32.013Z,1020.43
2023-04-09T01:32:32.042Z,1020.42
2023-04-09T01:33:32.039Z,1020.38
2023-04-09T01:34:32.058Z,1020.40
2023-04-09T01:35:32.077Z,1020.39
2023-04-09T01:36:32.100Z,1020.40
2023-04-09T01:37:32.118Z,1020.37
2023-04-09T01:38:32.137Z,1020.38
2023-04-09T01:39:32.156Z,1020.41
2023-04-09T01:40:32.180Z,1020.40
2023-04-09T01:41:32.191Z,1020.38
2023-04-09T01:42:32.220Z,1020.40
2023-04-09T01:43:32.237Z,1020.39
2023-04-09T01:44:32.271Z,1020.39
2023-04-09T01:45:32.285Z,1020.37
2023-04-09T01:46:32.368Z,1020.38
2023-04-09T01:47:32.391Z,1020.38
2023-04-09T01:48:32.327Z,1020.41
2023-04-09T01:49:32.365Z,1020.43
2023-04-09T01:50:32.370Z,1020.42
2023-04-09T01:51:32.387Z,1020.41
2023-04-09T01:52:32.402Z,1020.42
2023-04-09T01:53:32.425Z,1020.41
2023-04-09T01:54:32.441Z,1020.39
2023-04-09T01:55:32.466Z,1020.42
2023-04-09T01:56:32.480Z,1020.42
2023-04-09T01:57:32.497Z,1020.36
2023-04-09T01:58:32.516Z,1020.39
2023-04-09T01:59:32.538Z,1020.38
2023-04-09T02:00:32.556Z,1020.38
2023-04-09T02:01:32.713Z,1020.39
2023-04-09T02:02:32.662Z,1020.38
2023-04-09T02:03:32.761Z,1020.44
2023-04-09T02:04:32.654Z,1020.38
2023-04-09T02:05:32.679Z,1020.40
2023-04-09T02:06:32.664Z,1020.35
2023-04-09T02:07:32.687Z,1020.38
2023-04-09T02:08:32.707Z,1020.38
2023-04-09T02:09:32.731Z,1020.35
2023-04-09T02:10:32.743Z,1020.39
2023-04-09T02:11:32.762Z,1020.36
2023-04-09T02:12:32.784Z,1020.33
2023-04-09T02:13:32.806Z,1020.39
2023-04-09T02:14:32.843Z,1020.35
2023-04-09T02:15:32.856Z,1020.33
2023-04-09T02:16:32.858Z,1020.39
2023-04-09T02:17:32.946Z,1020.31
2023-04-09T02:18:32.916Z,1020.35
2023-04-09T02:19:32.915Z,1020.35
2023-04-09T02:20:32.933Z,1020.31
2023-04-09T02:21:32.954Z,1020.35
2023-04-09T02:22:32.975Z,1020.36
2023-04-09T02:23:32.994Z,1020.37
2023-04-09T02:24:33.010Z,1020.33
2023-04-09T02:25:33.029Z,1020.33
2023-04-09T02:26:33.048Z,1020.28
2023-04-09T02:27:33.068Z,1020.29
2023-04-09T02:28:33.087Z,1020.26
2023-04-09T02:29:33.104Z,1020.28
2023-04-09T02:30:33.120Z,1020.24
2023-04-09T02:31:33.244Z,1020.26
2023-04-09T02:32:33.208Z,1020.25
2023-04-09T02:33:33.181Z,1020.23
2023-04-09T02:34:33.201Z,1020.22
2023-04-09T02:35:33.226Z,1020.26
2023-04-09T02:36:33.238Z,1020.25
2023-04-09T02:37:33.259Z,1020.22
2023-04-09T02:38:33.298Z,1020.22
2023-04-09T02:39:33.294Z,1020.23
2023-04-09T02:40:33.317Z,1020.22
2023-04-09T02:41:33.333Z,1020.18
2023-04-09T02:42:33.354Z,1020.20
2023-04-09T02:43:33.376Z,1020.20
2023-04-09T02:44:33.392Z,1020.20
2023-04-09T02:45:33.410Z,1020.17
2023-04-09T02:46:33.545Z,1020.19
2023-04-09T02:47:33.485Z,1020.18
2023-04-09T02:48:33.469Z,1020.16
2023-04-09T02:49:33.488Z,1020.18
2023-04-09T02:50:33.506Z,1020.16
2023-04-09T02:51:33.529Z,1020.16
2023-04-09T02:52:33.545Z,1020.12
2023-04-09T02:53:33.563Z,1020.13
2023-04-09T02:54:33.583Z,1020.13
2023-04-09T02:55:33.601Z,1020.11
2023-04-09T02:56:33.622Z,1020.09
2023-04-09T02:57:33.759Z,1020.11
2023-04-09T02:58:33.666Z,1020.16
2023-04-09T02:59:33.680Z,1020.14
2023-04-09T03:00:33.702Z,1020.10
2023-04-09T03:01:33.800Z,1020.16
2023-04-09T03:02:33.807Z,1020.13
2023-04-09T03:03:33.851Z,1020.13
2023-04-09T03:04:33.777Z,1020.13
2023-04-09T03:05:33.792Z,1020.12
2023-04-09T03:06:33.811Z,1020.15
2023-04-09T03:07:33.835Z,1020.13
2023-04-09T03:08:33.847Z,1020.11
2023-04-09T03:09:33.868Z,1020.10
2023-04-09T03:10:33.894Z,1020.09
2023-04-09T03:11:33.905Z,1020.08
2023-04-09T03:12:33.926Z,1020.07
2023-04-09T03:13:33.940Z,1020.07
2023-04-09T03:14:35.274Z,1020.07
2023-04-09T03:15:34.071Z,1020.10
2023-04-09T03:16:34.000Z,1020.08
2023-04-09T03:17:34.042Z,1020.01
2023-04-09T03:18:34.047Z,1020.04
2023-04-09T03:19:34.059Z,1020.04
2023-04-09T03:20:34.080Z,1019.97
2023-04-09T03:21:34.094Z,1019.97
2023-04-09T03:22:34.111Z,1019.92
2023-04-09T03:23:34.132Z,1019.95
2023-04-09T03:24:34.152Z,1019.95
2023-04-09T03:25:34.213Z,1019.92
2023-04-09T03:26:34.189Z,1019.91
2023-04-09T03:27:34.211Z,1019.90
2023-04-09T03:28:34.225Z,1019.90
2023-04-09T03:29:34.249Z,1019.86
2023-04-09T03:30:34.262Z,1019.89
2023-04-09T03:31:34.299Z,1019.90
2023-04-09T03:32:34.359Z,1019.87
2023-04-09T03:33:34.318Z,1019.88
2023-04-09T03:34:34.336Z,1019.87
2023-04-09T03:35:34.387Z,1019.86
2023-04-09T03:36:34.392Z,1019.88
2023-04-09T03:37:34.401Z,1019.85
2023-04-09T03:38:34.414Z,1019.87
2023-04-09T03:39:34.438Z,1019.87
2023-04-09T03:40:34.444Z,1019.86
2023-04-09T03:41:34.467Z,1019.85
2023-04-09T03:42:34.486Z,1019.88
2023-04-09T03:43:34.505Z,1019.86
2023-04-09T03:44:34.526Z,1019.86
2023-04-09T03:45:34.542Z,1019.86
2023-04-09T03:46:34.620Z,1019.89
2023-04-09T03:47:34.600Z,1019.83
2023-04-09T03:48:34.592Z,1019.79
2023-04-09T03:49:34.614Z,1019.81
2023-04-09T03:50:34.634Z,1019.84
2023-04-09T03:51:34.651Z,1019.82
2023-04-09T03:52:34.668Z,1019.82
2023-04-09T03:53:34.692Z,1019.78
2023-04-09T03:54:34.709Z,1019.77
2023-04-09T03:55:34.733Z,1019.79
2023-04-09T03:56:34.767Z,1019.74
2023-04-09T03:57:34.761Z,1019.77
2023-04-09T03:58:34.778Z,1019.76
2023-04-09T03:59:34.792Z,1019.74
2023-04-09T04:00:34.819Z,1019.71
2023-04-09T04:01:35.011Z,1019.71
2023-04-09T04:02:34.966Z,1019.72
2023-04-09T04:03:34.925Z,1019.73
2023-04-09T04:04:34.963Z,1019.71
2023-04-09T04:05:34.903Z,1019.73
2023-04-09T04:06:34.932Z,1019.73
2023-04-09T04:07:34.944Z,1019.73
2023-04-09T04:08:34.962Z,1019.78
2023-04-09T04:09:34.974Z,1019.76
2023-04-09T04:10:34.993Z,1019.76
2023-04-09T04:11:35.011Z,1019.81
2023-04-09T04:12:35.026Z,1019.77
2023-04-09T04:13:35.060Z,1019.82
2023-04-09T04:14:35.063Z,1019.82
2023-04-09T04:15:35.083Z,1019.78
2023-04-09T04:16:35.122Z,1019.77
2023-04-09T04:17:35.187Z,1019.79
2023-04-09T04:18:35.139Z,1019.78
2023-04-09T04:19:35.154Z,1019.82
2023-04-09T04:20:35.173Z,1019.78
2023-04-09T04:21:35.194Z,1019.82
2023-04-09T04:22:35.222Z,1019.84
2023-04-09T04:23:35.228Z,1019.84
2023-04-09T04:24:35.249Z,1019.85
2023-04-09T04:25:35.270Z,1019.85
2023-04-09T04:26:35.280Z,1019.87
2023-04-09T04:27:35.299Z,1019.83
2023-04-09T04:28:35.318Z,1019.87
2023-04-09T04:29:35.338Z,1019.81
2023-04-09T04:30:35.358Z,1019.85
2023-04-09T04:31:35.387Z,1019.85
2023-04-09T04:32:35.433Z,1019.85
2023-04-09T04:33:35.412Z,1019.87
2023-04-09T04:34:35.437Z,1019.86
2023-04-09T04:35:35.480Z,1019.88
2023-04-09T04:36:35.463Z,1019.86
2023-04-09T04:37:35.489Z,1019.85
2023-04-09T04:38:35.506Z,1019.88
2023-04-09T04:39:35.521Z,1019.90
2023-04-09T04:40:35.536Z,1019.87
2023-04-09T04:41:35.559Z,1019.86
2023-04-09T04:42:35.570Z,1019.86
2023-04-09T04:43:35.593Z,1019.88
2023-04-09T04:44:35.606Z,1019.91
2023-04-09T04:45:35.648Z,1019.89
2023-04-09T04:46:35.652Z,1019.93
2023-04-09T04:47:35.747Z,1019.86
2023-04-09T04:48:35.681Z,1019.91
2023-04-09T04:49:35.698Z,1019.88
2023-04-09T04:50:35.717Z,1019.91
2023-04-09T04:51:35.735Z,1019.89
2023-04-09T04:52:35.762Z,1019.87
2023-04-09T04:53:35.769Z,1019.92
2023-04-09T04:54:35.788Z,1019.94
2023-04-09T04:55:35.806Z,1019.92
2023-04-09T04:56:35.832Z,1019.89
2023-04-09T04:57:35.843Z,1019.90
2023-04-09T04:58:35.859Z,1019.93
2023-04-09T04:59:35.882Z,1019.91
2023-04-09T05:00:35.902Z,1019.94
2023-04-09T05:01:35.965Z,1019.90
2023-04-09T05:02:36.040Z,1019.91
2023-04-09T05:03:36.052Z,1019.90
2023-04-09T05:04:35.970Z,1019.91
2023-04-09T05:05:35.986Z,1019.89
2023-04-09T05:06:36.011Z,1019.93
2023-04-09T05:07:36.024Z,1019.91
2023-04-09T05:08:36.042Z,1019.93
2023-04-09T05:09:36.060Z,1019.93
2023-04-09T05:10:36.080Z,1019.97
2023-04-09T05:11:36.096Z,1019.95
2023-04-09T05:12:36.113Z,1019.97
2023-04-09T05:13:36.132Z,1019.95
2023-04-09T05:14:36.150Z,1019.94
2023-04-09T05:15:36.171Z,1019.92
2023-04-09T05:16:36.255Z,1019.92
2023-04-09T05:17:36.221Z,1019.84
2023-04-09T05:18:36.246Z,1019.86
2023-04-09T05:19:36.245Z,1019.87
2023-04-09T05:20:36.289Z,1019.90
2023-04-09T05:21:36.280Z,1019.93
2023-04-09T05:22:36.300Z,1019.89
2023-04-09T05:23:36.320Z,1019.89
2023-04-09T05:24:36.335Z,1019.86
2023-04-09T05:25:36.349Z,1019.89
2023-04-09T05:26:36.376Z,1019.92
2023-04-09T05:27:36.395Z,1019.92
2023-04-09T05:28:36.416Z,1019.95
2023-04-09T05:29:36.434Z,1019.99
2023-04-09T05:30:36.533Z,1019.98
2023-04-09T05:31:36.471Z,1019.94
2023-04-09T05:32:36.493Z,1019.95
2023-04-09T05:33:36.503Z,1019.98
2023-04-09T05:34:36.524Z,1019.99
2023-04-09T05:35:36.557Z,1019.97
2023-04-09T05:36:36.565Z,1019.97
2023-04-09T05:37:36.578Z,1019.98
2023-04-09T05:38:36.599Z,1019.96
2023-04-09T05:39:36.621Z,1019.94
2023-04-09T05:40:36.641Z,1019.98
2023-04-09T05:41:36.658Z,1019.97
2023-04-09T05:42:36.680Z,1019.95
2023-04-09T05:43:36.693Z,1020.01
2023-04-09T05:44:36.713Z,1020.05
2023-04-09T05:45:36.731Z,1020.04
2023-04-09T05:46:36.771Z,1020.02
2023-04-09T05:47:36.966Z,1020.06
2023-04-09T05:48:36.803Z,1020.05
2023-04-09T05:49:36.814Z,1020.03
2023-04-09T05:50:51.119Z,1020.02
2023-04-09T05:51:36.853Z,1020.07
2023-04-09T05:52:36.871Z,1020.01
2023-04-09T05:53:36.906Z,1020.07
2023-04-09T05:54:36.907Z,1020.07
2023-04-09T05:55:36.926Z,1020.03
2023-04-09T05:56:36.947Z,1020.06
2023-04-09T05:57:36.965Z,1020.06
2023-04-09T05:58:36.985Z,1020.06
2023-04-09T05:59:37.007Z,1020.13
2023-04-09T06:00:37.027Z,1020.06
2023-04-09T06:01:37.072Z,1020.11
2023-04-09T06:02:37.114Z,1020.08
2023-04-09T06:03:37.220Z,1020.09
2023-04-09T06:04:37.117Z,1020.06
2023-04-09T06:05:37.129Z,1020.09
2023-04-09T06:06:37.147Z,1020.07
2023-04-09T06:07:37.180Z,1020.06
2023-04-09T06:08:37.210Z,1020.06
2023-04-09T06:09:37.211Z,1020.11
2023-04-09T06:10:37.229Z,1020.10
2023-04-09T06:11:37.246Z,1020.14
2023-04-09T06:12:37.270Z,1020.11
2023-04-09T06:13:37.289Z,1020.13
2023-04-09T06:14:37.309Z,1020.16
2023-04-09T06:15:37.339Z,1020.14
2023-04-09T06:16:37.357Z,1020.18
2023-04-09T06:17:37.437Z,1020.18
2023-04-09T06:18:37.393Z,1020.16
2023-04-09T06:19:37.417Z,1020.21
2023-04-09T06:20:37.438Z,1020.19
2023-04-09T06:21:37.462Z,1020.23
2023-04-09T06:22:37.503Z,1020.20
2023-04-09T06:23:37.503Z,1020.23
2023-04-09T06:24:37.550Z,1020.24
2023-04-09T06:25:37.547Z,1020.23
2023-04-09T06:26:37.566Z,1020.26
2023-04-09T06:27:37.618Z,1020.25
2023-04-09T06:28:37.610Z,1020.23
2023-04-09T06:29:37.634Z,1020.24
2023-04-09T06:30:37.655Z,1020.29
2023-04-09T06:31:37.783Z,1020.29
2023-04-09T06:32:46.841Z,1020.22
2023-04-09T06:33:37.729Z,1020.25
2023-04-09T06:34:37.743Z,1020.22
2023-04-09T06:35:37.785Z,1020.27
2023-04-09T06:36:37.810Z,1020.25
2023-04-09T06:37:37.815Z,1020.26
2023-04-09T06:38:37.833Z,1020.29
2023-04-09T06:39:40.390Z,1020.28
2023-04-09T06:40:37.880Z,1020.31
2023-04-09T06:41:37.906Z,1020.33
2023-04-09T06:42:37.930Z,1020.28
2023-04-09T06:43:37.948Z,1020.31
2023-04-09T06:44:37.995Z,1020.31
2023-04-09T06:45:39.602Z,1020.34
2023-04-09T06:46:38.095Z,1020.32
2023-04-09T06:47:38.077Z,1020.32
2023-04-09T06:48:38.071Z,1020.31
2023-04-09T06:49:38.086Z,1020.32
2023-04-09T06:50:38.127Z,1020.33
2023-04-09T06:51:38.136Z,1020.31
2023-04-09T06:52:38.159Z,1020.32
2023-04-09T06:53:38.202Z,1020.28
2023-04-09T06:54:38.205Z,1020.26
2023-04-09T06:55:38.235Z,1020.32
2023-04-09T06:56:38.253Z,1020.29
2023-04-09T06:57:38.272Z,1020.28
2023-04-09T06:58:38.293Z,1020.26
2023-04-09T06:59:38.327Z,1020.30
2023-04-09T07:00:38.350Z,1020.29
2023-04-09T07:01:38.513Z,1020.30
2023-04-09T07:02:38.609Z,1020.28
2023-04-09T07:03:38.540Z,1020.31
2023-04-09T07:04:38.518Z,1020.31
2023-04-09T07:05:38.451Z,1020.35
2023-04-09T07:06:38.480Z,1020.33
2023-04-09T07:07:38.498Z,1020.30
2023-04-09T07:08:38.520Z,1020.31
2023-04-09T07:09:38.541Z,1020.29
2023-04-09T07:10:38.570Z,1020.33
2023-04-09T07:11:38.596Z,1020.31
2023-04-09T07:12:38.609Z,1020.35
2023-04-09T07:13:38.634Z,1020.31
2023-04-09T07:14:38.655Z,1020.32
2023-04-09T07:15:40.078Z,1020.27
2023-04-09T07:16:38.778Z,1020.29
2023-04-09T07:17:38.741Z,1020.30
2023-04-09T07:18:38.754Z,1020.30
2023-04-09T07:19:38.760Z,1020.32
2023-04-09T07:20:38.788Z,1020.31
2023-04-09T07:21:38.801Z,1020.31
2023-04-09T07:22:38.828Z,1020.31
2023-04-09T07:23:38.845Z,1020.29
2023-04-09T07:24:38.867Z,1020.32
2023-04-09T07:25:38.889Z,1020.33
2023-04-09T07:26:38.910Z,1020.32
2023-04-09T07:27:38.939Z,1020.36
2023-04-09T07:28:38.956Z,1020.33
2023-04-09T07:29:38.976Z,1020.34
2023-04-09T07:30:38.997Z,1020.36
2023-04-09T07:31:39.265Z,1020.38
2023-04-09T07:32:39.075Z,1020.36
2023-04-09T07:33:39.070Z,1020.36
2023-04-09T07:34:39.085Z,1020.34
2023-04-09T07:35:39.145Z,1020.36
2023-04-09T07:36:39.128Z,1020.35
2023-04-09T07:37:39.158Z,1020.36
2023-04-09T07:38:39.178Z,1020.36
2023-04-09T07:39:39.193Z,1020.40
2023-04-09T07:40:39.218Z,1020.38
2023-04-09T07:41:39.243Z,1020.37
2023-04-09T07:42:39.268Z,1020.41
2023-04-09T07:43:39.280Z,1020.43
2023-04-09T07:44:39.302Z,1020.43
2023-04-09T07:45:39.322Z,1020.46
2023-04-09T07:46:39.410Z,1020.41
2023-04-09T07:47:39.380Z,1020.43
2023-04-09T07:48:39.395Z,1020.44
2023-04-09T07:49:39.416Z,1020.44
2023-04-09T07:50:39.432Z,1020.44
2023-04-09T07:51:39.459Z,1020.46
2023-04-09T07:52:39.480Z,1020.47
2023-04-09T07:53:39.506Z,1020.46
2023-04-09T07:54:39.530Z,1020.40
2023-04-09T07:55:39.544Z,1020.44
2023-04-09T07:56:39.566Z,1020.39
2023-04-09T07:57:39.588Z,1020.44
2023-04-09T07:58:39.611Z,1020.41
2023-04-09T07:59:39.631Z,1020.42
2023-04-09T08:00:39.657Z,1020.42
2023-04-09T08:01:39.770Z,1020.44
2023-04-09T08:02:39.928Z,1020.40
2023-04-09T08:03:39.832Z,1020.44
2023-04-09T08:04:39.906Z,1020.43
2023-04-09T08:05:39.767Z,1020.45
2023-04-09T08:06:39.787Z,1020.43
2023-04-09T08:07:39.809Z,1020.45
2023-04-09T08:08:39.836Z,1020.48
2023-04-09T08:09:39.857Z,1020.43
2023-04-09T08:10:39.877Z,1020.47
2023-04-09T08:11:39.899Z,1020.45
2023-04-09T08:12:39.923Z,1020.45
2023-04-09T08:13:39.944Z,1020.43
2023-04-09T08:14:39.984Z,1020.44
2023-04-09T08:15:39.995Z,1020.44
2023-04-09T08:16:40.043Z,1020.42
2023-04-09T08:17:40.116Z,1020.44
2023-04-09T08:18:40.076Z,1020.41
2023-04-09T08:19:41.777Z,1020.43
2023-04-09T08:20:40.106Z,1020.43
2023-04-09T08:21:40.136Z,1020.43
2023-04-09T08:22:40.144Z,1020.43
2023-04-09T08:23:40.173Z,1020.43
2023-04-09T08:24:40.234Z,1020.43
2023-04-09T08:25:40.211Z,1020.44
2023-04-09T08:26:40.253Z,1020.42
2023-04-09T08:27:40.254Z,1020.47
2023-04-09T08:28:40.282Z,1020.46
2023-04-09T08:29:40.297Z,1020.48
2023-04-09T08:30:40.324Z,1020.50
2023-04-09T08:31:40.403Z,1020.50
2023-04-09T08:32:40.444Z,1020.47
2023-04-09T08:33:40.390Z,1020.54
2023-04-09T08:34:40.413Z,1020.53
2023-04-09T08:35:40.439Z,1020.55
2023-04-09T08:36:40.465Z,1020.49
2023-04-09T08:37:40.483Z,1020.47
2023-04-09T08:38:40.504Z,1020.46
2023-04-09T08:39:40.549Z,1020.44
2023-04-09T08:40:40.549Z,1020.46
2023-04-09T08:41:40.573Z,1020.43
2023-04-09T08:42:40.595Z,1020.44
2023-04-09T08:43:53.178Z,1020.39
2023-04-09T08:44:40.646Z,1020.44
2023-04-09T08:45:40.685Z,1020.41
2023-04-09T08:46:40.695Z,1020.47
2023-04-09T08:47:40.743Z,1020.51
2023-04-09T08:48:40.778Z,1020.49
2023-04-09T08:49:40.756Z,1020.48
2023-04-09T08:50:40.778Z,1020.49
2023-04-09T08:51:40.796Z,1020.49
2023-04-09T08:52:40.825Z,1020.49
2023-04-09T08:53:40.841Z,1020.45
2023-04-09T08:54:40.890Z,1020.44
2023-04-09T08:55:40.893Z,1020.44
2023-04-09T08:56:40.912Z,1020.45
2023-04-09T08:57:40.936Z,1020.47
2023-04-09T08:58:40.961Z,1020.44
2023-04-09T08:59:40.982Z,1020.46
2023-04-09T09:00:41.008Z,1020.42
2023-04-09T09:01:41.112Z,1020.40
2023-04-09T09:02:41.115Z,1020.41
2023-04-09T09:03:41.125Z,1020.47
2023-04-09T09:04:41.097Z,1020.40
2023-04-09T09:05:41.109Z,1020.38
2023-04-09T09:06:41.158Z,1020.40
2023-04-09T09:07:41.166Z,1020.39
2023-04-09T09:08:41.192Z,1020.38
2023-04-09T09:09:41.207Z,1020.41
2023-04-09T09:10:41.241Z,1020.37
2023-04-09T09:11:41.284Z,1020.33
2023-04-09T09:12:41.289Z,1020.34
2023-04-09T09:13:41.302Z,1020.33
2023-04-09T09:14:41.327Z,1020.33
2023-04-09T09:15:41.373Z,1020.33
2023-04-09T09:16:41.431Z,1020.36
2023-04-09T09:17:41.418Z,1020.35
2023-04-09T09:18:41.417Z,1020.34
2023-04-09T09:19:41.442Z,1020.34
2023-04-09T09:20:41.465Z,1020.30
2023-04-09T09:21:41.485Z,1020.30
2023-04-09T09:22:41.508Z,1020.31
2023-04-09T09:23:41.531Z,1020.28
2023-04-09T09:24:41.552Z,1020.29
2023-04-09T09:25:41.578Z,1020.29
2023-04-09T09:26:41.602Z,1020.34
2023-04-09T09:27:41.623Z,1020.30
2023-04-09T09:28:41.649Z,1020.29
2023-04-09T09:29:41.671Z,1020.24
2023-04-09T09:30:41.716Z,1020.25
2023-04-09T09:31:41.746Z,1020.31
2023-04-09T09:32:41.746Z,1020.27
2023-04-09T09:33:41.770Z,1020.29
2023-04-09T09:34:41.792Z,1020.29
2023-04-09T09:35:41.829Z,1020.33
2023-04-09T09:36:41.841Z,1020.29
2023-04-09T09:37:41.871Z,1020.25
2023-04-09T09:38:41.885Z,1020.24
2023-04-09T09:39:41.908Z,1020.23
2023-04-09T09:40:41.948Z,1020.20
2023-04-09T09:41:41.962Z,1020.21
2023-04-09T09:42:41.980Z,1020.23
2023-04-09T09:43:42.006Z,1020.21
2023-04-09T09:44:42.025Z,1020.20
2023-04-09T09:45:42.111Z,1020.24
2023-04-09T09:46:42.122Z,1020.24
2023-04-09T09:47:42.125Z,1020.23
2023-04-09T09:48:42.118Z,1020.16
2023-04-09T09:49:42.151Z,1020.24
2023-04-09T09:50:42.165Z,1020.21
2023-04-09T09:51:42.226Z,1020.21
2023-04-09T09:52:42.228Z,1020.18
2023-04-09T09:53:42.239Z,1020.17
2023-04-09T09:54:42.284Z,1020.22
2023-04-09T09:55:42.295Z,1020.20
2023-04-09T09:56:42.310Z,1020.21
2023-04-09T09:57:42.342Z,1020.24
2023-04-09T09:58:42.359Z,1020.25
2023-04-09T09:59:42.379Z,1020.22
2023-04-09T10:00:42.405Z,1020.19
2023-04-09T10:01:42.526Z,1020.20
2023-04-09T10:02:42.496Z,1020.19
2023-04-09T10:03:42.477Z,1020.19
2023-04-09T10:04:42.555Z,1020.21
2023-04-09T10:05:42.523Z,1020.21
2023-04-09T10:06:42.556Z,1020.14
2023-04-09T10:07:42.599Z,1020.18
2023-04-09T10:08:42.598Z,1020.10
2023-04-09T10:09:42.615Z,1020.12
2023-04-09T10:10:42.641Z,1020.13
2023-04-09T10:11:42.662Z,1020.10
2023-04-09T10:12:42.688Z,1020.09
2023-04-09T10:13:42.712Z,1020.11
2023-04-09T10:14:42.754Z,1020.11
2023-04-09T10:15:42.783Z,1020.12
2023-04-09T10:16:42.786Z,1020.10
2023-04-09T10:17:42.834Z,1020.09
2023-04-09T10:18:42.833Z,1020.08
2023-04-09T10:19:42.868Z,1020.10
2023-04-09T10:20:42.880Z,1020.09
2023-04-09T10:21:42.980Z,1020.03
2023-04-09T10:22:42.934Z,1020.00
2023-04-09T10:23:42.987Z,1019.99
2023-04-09T10:24:42.992Z,1020.02
2023-04-09T10:25:43.004Z,1020.00
2023-04-09T10:26:43.049Z,1019.98
2023-04-09T10:27:43.047Z,1019.96
2023-04-09T10:28:43.085Z,1019.93
2023-04-09T10:29:43.099Z,1019.96
2023-04-09T10:30:43.123Z,1019.97
2023-04-09T10:31:43.169Z,1019.94
2023-04-09T10:32:43.216Z,1019.96
2023-04-09T10:33:43.200Z,1019.97
2023-04-09T10:34:43.219Z,1019.97
2023-04-09T10:35:43.259Z,1019.96
2023-04-09T10:36:43.272Z,1019.95
2023-04-09T10:37:43.309Z,1019.93
2023-04-09T10:38:43.324Z,1019.93
2023-04-09T10:39:43.349Z,1019.88
2023-04-09T10:40:43.381Z,1019.92
2023-04-09T10:41:43.406Z,1019.90
2023-04-09T10:42:43.434Z,1019.88
2023-04-09T10:43:43.462Z,1019.88
2023-04-09T10:44:43.487Z,1019.88
2023-04-09T10:45:43.536Z,1019.93
2023-04-09T10:46:43.605Z,1019.88
2023-04-09T10:47:43.615Z,1019.85
2023-04-09T10:48:43.589Z,1019.87
2023-04-09T10:49:43.609Z,1019.85
2023-04-09T10:50:43.635Z,1019.84
2023-04-09T10:51:43.665Z,1019.81
2023-04-09T10:52:43.690Z,1019.81
2023-04-09T10:53:43.730Z,1019.77
2023-04-09T10:54:43.768Z,1019.78
2023-04-09T10:55:43.771Z,1019.82
2023-04-09T10:56:43.812Z,1019.81
2023-04-09T10:57:43.834Z,1019.75
2023-04-09T10:58:43.858Z,1019.70
2023-04-09T10:59:43.881Z,1019.70
2023-04-09T11:00:43.909Z,1019.75
2023-04-09T11:01:43.975Z,1019.75
2023-04-09T11:02:44.041Z,1019.75
2023-04-09T11:03:44.052Z,1019.71
2023-04-09T11:04:44.044Z,1019.71
2023-04-09T11:05:44.043Z,1019.68
2023-04-09T11:06:44.066Z,1019.70
2023-04-09T11:07:44.096Z,1019.65
2023-04-09T11:08:44.126Z,1019.69
2023-04-09T11:09:44.150Z,1019.67
2023-04-09T11:10:44.210Z,1019.67
2023-04-09T11:11:44.216Z,1019.64
2023-04-09T11:12:44.232Z,1019.61
2023-04-09T11:13:44.263Z,1019.63
2023-04-09T11:14:44.288Z,1019.63
2023-04-09T11:15:44.349Z,1019.62
2023-04-09T11:16:44.407Z,1019.62
2023-04-09T11:17:44.388Z,1019.61
2023-04-09T11:18:44.390Z,1019.60
2023-04-09T11:19:44.419Z,1019.63
2023-04-09T11:20:44.481Z,1019.63
2023-04-09T11:21:44.470Z,1019.57
2023-04-09T11:22:44.496Z,1019.54
2023-04-09T11:23:44.522Z,1019.58
2023-04-09T11:24:44.553Z,1019.55
2023-04-09T11:25:44.582Z,1019.57
2023-04-09T11:26:44.603Z,1019.54
2023-04-09T11:27:46.374Z,1019.59
2023-04-09T11:28:44.658Z,1019.55
2023-04-09T11:29:44.681Z,1019.52
2023-04-09T11:30:44.715Z,1019.52
2023-04-09T11:31:44.820Z,1019.52
2023-04-09T11:32:44.816Z,1019.51
2023-04-09T11:33:44.787Z,1019.50
2023-04-09T11:34:44.814Z,1019.47
2023-04-09T11:35:44.886Z,1019.54
2023-04-09T11:36:44.867Z,1019.51
2023-04-09T11:37:44.909Z,1019.52
2023-04-09T11:38:44.919Z,1019.52
2023-04-09T11:39:44.949Z,1019.53
2023-04-09T11:40:44.973Z,1019.52
2023-04-09T11:41:44.995Z,1019.46
2023-04-09T11:42:45.025Z,1019.50
2023-04-09T11:43:45.061Z,1019.49
2023-04-09T11:44:45.081Z,1019.49
2023-04-09T11:45:45.117Z,1019.46
2023-04-09T11:46:45.180Z,1019.46
2023-04-09T11:47:45.208Z,1019.44
2023-04-09T11:48:45.185Z,1019.50
2023-04-09T11:49:45.219Z,1019.48
2023-04-09T11:50:45.239Z,1019.47
2023-04-09T11:51:45.262Z,1019.50
2023-04-09T11:52:45.295Z,1019.49
2023-04-09T11:53:45.319Z,1019.45
2023-04-09T11:54:45.353Z,1019.42
2023-04-09T11:55:45.372Z,1019.46
2023-04-09T11:56:45.402Z,1019.40
2023-04-09T11:57:45.428Z,1019.44
2023-04-09T11:58:45.451Z,1019.41
2023-04-09T11:59:45.480Z,1019.39
2023-04-09T12:00:45.538Z,1019.40
2023-04-09T12:01:45.582Z,1019.40
2023-04-09T12:02:45.765Z,1019.36
2023-04-09T12:03:45.733Z,1019.39
2023-04-09T12:04:45.908Z,1019.39
2023-04-09T12:05:49.287Z,1019.36
2023-04-09T12:06:45.748Z,1019.39